createdAt,value
2023-04-18T00:00:03.362Z,171.87
2023-04-18T00:01:03.301Z,170.99
2023-04-18T00:02:03.318Z,170.06
2023-04-18T00:03:04.594Z,170.51
2023-04-18T00:04:03.404Z,171.34
2023-04-18T00:05:03.217Z,170.87
2023-04-18T00:06:03.111Z,170.11
2023-04-18T00:07:03.073Z,171.65
2023-04-18T00:08:03.039Z,171.66
2023-04-18T00:09:03.011Z,170.76
2023-04-18T00:10:02.972Z,171.44
2023-04-18T00:11:02.928Z,170.45
2023-04-18T00:12:02.886Z,169.60
2023-04-18T00:13:02.853Z,169.14
2023-04-18T00:14:02.843Z,169.71
2023-04-18T00:15:02.840Z,170.34
2023-04-18T00:16:02.761Z,170.89
2023-04-18T00:17:02.902Z,170.55
2023-04-18T00:18:02.719Z,168.85
2023-04-18T00:19:02.651Z,170.08
2023-04-18T00:20:02.629Z,169.35
2023-04-18T00:21:02.585Z,170.75
2023-04-18T00:22:02.575Z,167.93
2023-04-18T00:23:02.545Z,169.17
2023-04-18T00:24:02.549Z,169.52
2023-04-18T00:25:02.530Z,170.06
2023-04-18T00:26:02.486Z,168.98
2023-04-18T00:27:02.472Z,171.22
2023-04-18T00:28:02.447Z,169.59
2023-04-18T00:29:02.435Z,169.13
2023-04-18T00:30:02.438Z,168.09
2023-04-18T00:31:02.489Z,169.59
2023-04-18T00:32:02.401Z,168.88
2023-04-18T00:33:02.400Z,167.73
2023-04-18T00:34:02.372Z,168.03
2023-04-18T00:35:02.360Z,167.97
2023-04-18T00:36:02.341Z,167.82
2023-04-18T00:37:02.334Z,169.26
2023-04-18T00:38:02.303Z,169.79
2023-04-18T00:39:02.345Z,169.94
2023-04-18T00:40:02.284Z,168.45
2023-04-18T00:41:02.284Z,167.44
2023-04-18T00:42:02.261Z,167.81
2023-04-18T00:43:02.264Z,167.98
2023-04-18T00:44:02.228Z,167.92
2023-04-18T00:45:02.207Z,167.33
2023-04-18T00:46:02.268Z,169.57
2023-04-18T00:47:02.270Z,166.90
2023-04-18T00:48:02.218Z,168.21
2023-04-18T00:49:02.159Z,167.84
2023-04-18T00:50:02.141Z,168.11
2023-04-18T00:51:02.118Z,168.94
2023-04-18T00:52:02.138Z,167.24
2023-04-18T00:53:02.057Z,167.90
2023-04-18T00:54:02.040Z,168.30
2023-04-18T00:55:02.038Z,169.01
2023-04-18T00:56:02.042Z,165.93
2023-04-18T00:57:01.992Z,167.20
2023-04-18T00:58:01.996Z,166.19
2023-04-18T00:59:01.981Z,167.16
2023-04-18T01:00:01.951Z,167.59
2023-04-18T01:01:01.930Z,167.04
2023-04-18T01:02:02.124Z,166.95
2023-04-18T01:03:02.084Z,169.04
2023-04-18T01:04:02.057Z,167.55
2023-04-18T01:05:01.868Z,167.38
2023-04-18T01:06:01.836Z,167.21
2023-04-18T01:07:01.811Z,167.16
2023-04-18T01:08:01.804Z,168.94
2023-04-18T01:09:01.777Z,166.73
2023-04-18T01:10:01.810Z,166.03
2023-04-18T01:11:01.769Z,166.92
2023-04-18T01:12:01.742Z,167.05
2023-04-18T01:13:01.673Z,167.05
2023-04-18T01:14:01.707Z,167.05
2023-04-18T01:15:01.651Z,167.34
2023-04-18T01:16:01.619Z,165.65
2023-04-18T01:17:01.509Z,166.55
2023-04-18T01:18:01.546Z,167.18
2023-04-18T01:19:01.421Z,165.53
2023-04-18T01:20:01.384Z,165.27
2023-04-18T01:21:01.342Z,165.89
2023-04-18T01:22:01.293Z,164.79
2023-04-18T01:23:01.246Z,166.60
2023-04-18T01:24:01.219Z,167.45
2023-04-18T01:25:01.157Z,164.61
2023-04-18T01:26:01.138Z,165.95
2023-04-18T01:27:01.067Z,165.99
2023-04-18T01:28:01.022Z,167.01
2023-04-18T01:29:00.985Z,165.06
2023-04-18T01:30:00.940Z,165.44
2023-04-18T01:31:00.937Z,165.79
2023-04-18T01:32:00.858Z,166.37
2023-04-18T01:33:00.920Z,165.34
2023-04-18T01:34:00.814Z,166.03
2023-04-18T01:35:00.816Z,165.44
2023-04-18T01:36:00.816Z,165.49
2023-04-18T01:37:00.811Z,166.21
2023-04-18T01:38:00.782Z,165.60
2023-04-18T01:39:00.784Z,166.09
2023-04-18T01:40:00.773Z,165.81
2023-04-18T01:41:00.736Z,164.20
2023-04-18T01:42:00.726Z,164.71
2023-04-18T01:43:00.746Z,165.00
2023-04-18T01:44:00.671Z,166.56
2023-04-18T01:45:00.652Z,165.90
2023-04-18T01:46:00.629Z,165.43
2023-04-18T01:47:00.611Z,164.77
2023-04-18T01:48:00.650Z,166.77
2023-04-18T01:49:00.530Z,164.69
2023-04-18T01:50:00.532Z,164.74
2023-04-18T01:51:00.491Z,164.07
2023-04-18T01:52:00.493Z,166.01
2023-04-18T01:53:00.454Z,164.76
2023-04-18T01:54:00.439Z,163.77
2023-04-18T01:55:00.431Z,165.81
2023-04-18T01:56:00.416Z,164.34
2023-04-18T01:57:00.384Z,166.07
2023-04-18T01:58:00.355Z,164.56
2023-04-18T01:59:00.351Z,164.34
2023-04-18T02:00:00.302Z,164.40
2023-04-18T02:01:00.310Z,164.73
2023-04-18T02:02:00.273Z,164.44
2023-04-18T02:03:00.344Z,164.72
2023-04-18T02:04:00.272Z,164.75
2023-04-18T02:05:00.126Z,163.12
2023-04-18T02:06:00.077Z,165.02
2023-04-18T02:07:00.046Z,164.19
2023-04-18T02:08:00.017Z,163.92
2023-04-18T02:08:59.955Z,163.59
2023-04-18T02:09:59.911Z,164.92
2023-04-18T02:10:59.871Z,163.91
2023-04-18T02:11:59.828Z,163.86
2023-04-18T02:12:59.805Z,164.43
2023-04-18T02:13:59.785Z,164.90
2023-04-18T02:14:59.733Z,163.90
2023-04-18T02:15:59.771Z,163.75
2023-04-18T02:16:59.635Z,163.27
2023-04-18T02:17:59.630Z,164.89
2023-04-18T02:18:59.574Z,163.28
2023-04-18T02:19:59.527Z,161.48
2023-04-18T02:20:59.508Z,163.54
2023-04-18T02:21:59.464Z,163.78
2023-04-18T02:22:59.421Z,162.98
2023-04-18T02:23:59.372Z,162.11
2023-04-18T02:24:59.333Z,162.98
2023-04-18T02:25:59.304Z,163.17
2023-04-18T02:26:59.253Z,163.49
2023-04-18T02:27:59.223Z,163.97
2023-04-18T02:28:59.204Z,161.90
2023-04-18T02:29:59.197Z,161.85
2023-04-18T02:30:59.191Z,164.08
2023-04-18T02:31:59.199Z,161.77
2023-04-18T02:32:59.236Z,162.04
2023-04-18T02:33:59.171Z,162.41
2023-04-18T02:34:59.134Z,161.80
2023-04-18T02:35:59.150Z,162.47
2023-04-18T02:36:59.117Z,161.43
2023-04-18T02:37:59.074Z,162.10
2023-04-18T02:38:59.073Z,163.60
2023-04-18T02:39:59.054Z,161.41
2023-04-18T02:40:59.027Z,162.12
2023-04-18T02:41:59.045Z,161.10
2023-04-18T02:42:59.007Z,160.98
2023-04-18T02:43:58.958Z,159.83
2023-04-18T02:44:58.952Z,159.98
2023-04-18T02:45:58.941Z,156.60
2023-04-18T02:46:58.832Z,152.86
2023-04-18T02:47:58.809Z,141.07
2023-04-18T02:48:58.761Z,132.63
2023-04-18T02:49:58.716Z,124.22
2023-04-18T02:50:58.714Z,119.78
2023-04-18T02:51:58.685Z,112.94
2023-04-18T02:52:58.634Z,110.17
2023-04-18T02:53:58.628Z,104.06
2023-04-18T02:54:58.610Z,100.09
2023-04-18T02:55:58.578Z,95.13
2023-04-18T02:56:58.574Z,91.56
2023-04-18T02:57:58.560Z,89.58
2023-04-18T02:58:58.545Z,86.34
2023-04-18T02:59:58.507Z,82.36
2023-04-18T03:00:58.524Z,81.19
2023-04-18T03:01:58.495Z,78.30
2023-04-18T03:02:58.521Z,74.86
2023-04-18T03:03:58.452Z,70.36
2023-04-18T03:04:58.461Z,67.50
2023-04-18T03:05:58.431Z,64.46
2023-04-18T03:06:58.396Z,61.92
2023-04-18T03:07:58.381Z,59.21
2023-04-18T03:08:58.379Z,56.26
2023-04-18T03:09:58.362Z,53.45
2023-04-18T03:10:58.353Z,51.60
2023-04-18T03:11:58.350Z,49.01
2023-04-18T03:12:58.316Z,47.22
2023-04-18T03:13:58.317Z,45.67
2023-04-18T03:14:58.297Z,43.24
2023-04-18T03:15:58.317Z,40.67
2023-04-18T03:16:58.280Z,39.30
2023-04-18T03:17:58.335Z,37.17
2023-04-18T03:18:58.338Z,36.55
2023-04-18T03:19:58.354Z,33.35
2023-04-18T03:20:58.384Z,32.49
2023-04-18T03:21:58.424Z,30.00
2023-04-18T03:22:58.446Z,27.94
2023-04-18T03:23:58.473Z,25.00
2023-04-18T03:24:58.495Z,25.01
2023-04-18T03:25:58.550Z,25.19
2023-04-18T03:26:58.574Z,25.63
2023-04-18T03:27:58.614Z,25.05
2023-04-18T03:28:58.663Z,25.25
2023-04-18T03:29:58.686Z,25.00
2023-04-18T03:30:58.787Z,25.47
2023-04-18T03:31:58.799Z,25.17
2023-04-18T03:32:58.983Z,25.57
2023-04-18T03:33:58.881Z,25.29
2023-04-18T03:34:58.918Z,25.41
2023-04-18T03:35:58.935Z,25.64
2023-04-18T03:36:58.996Z,25.05
2023-04-18T03:37:59.021Z,25.18
2023-04-18T03:38:59.060Z,25.22
2023-04-18T03:39:59.096Z,25.44
2023-04-18T03:40:59.161Z,26.55
2023-04-18T03:41:59.230Z,25.00
2023-04-18T03:42:59.256Z,25.12
2023-04-18T03:43:59.316Z,25.13
2023-04-18T03:44:59.351Z,25.00
2023-04-18T03:45:59.486Z,25.00
2023-04-18T03:46:59.477Z,25.31
2023-04-18T03:47:59.547Z,25.56
2023-04-18T03:48:59.540Z,25.20
2023-04-18T03:49:59.601Z,25.32
2023-04-18T03:50:59.649Z,26.03
2023-04-18T03:51:59.695Z,25.42
2023-04-18T03:52:59.762Z,25.22
2023-04-18T03:53:59.768Z,25.52
2023-04-18T03:54:59.799Z,25.70
2023-04-18T03:55:59.821Z,25.73
2023-04-18T03:56:59.780Z,25.83
2023-04-18T03:57:59.759Z,25.52
2023-04-18T03:58:59.742Z,24.44
2023-04-18T03:59:59.724Z,23.68
2023-04-18T04:00:59.720Z,25.28
2023-04-18T04:01:59.862Z,25.56
2023-04-18T04:02:59.914Z,25.64
2023-04-18T04:03:59.811Z,25.36
2023-04-18T04:04:59.739Z,24.86
2023-04-18T04:05:59.664Z,23.66
2023-04-18T04:06:59.661Z,22.65
2023-04-18T04:07:59.647Z,20.51
2023-04-18T04:08:59.628Z,25.00
2023-04-18T04:09:59.626Z,26.82
2023-04-18T04:10:59.614Z,25.36
2023-04-18T04:11:59.603Z,25.00
2023-04-18T04:12:59.643Z,25.96
2023-04-18T04:13:59.621Z,26.00
2023-04-18T04:14:59.662Z,26.03
2023-04-18T04:15:59.654Z,26.10
2023-04-18T04:16:59.637Z,24.98
2023-04-18T04:17:59.588Z,25.66
2023-04-18T04:18:59.561Z,26.54
2023-04-18T04:19:59.553Z,26.75
2023-04-18T04:20:59.538Z,27.48
2023-04-18T04:21:59.532Z,26.03
2023-04-18T04:22:59.526Z,26.18
2023-04-18T04:23:59.581Z,25.47
2023-04-18T04:24:59.623Z,27.70
2023-04-18T04:25:59.670Z,27.03
2023-04-18T04:26:59.741Z,27.28
2023-04-18T04:27:59.766Z,27.54
2023-04-18T04:28:59.808Z,27.48
2023-04-18T04:29:59.850Z,26.61
2023-04-18T04:30:59.921Z,26.20
2023-04-18T04:32:00.010Z,26.58
2023-04-18T04:33:00.037Z,27.53
2023-04-18T04:34:00.081Z,26.73
2023-04-18T04:35:00.052Z,26.84
2023-04-18T04:36:00.038Z,27.16
2023-04-18T04:37:00.023Z,28.31
2023-04-18T04:38:00.036Z,29.69
2023-04-18T04:39:00.010Z,30.63
2023-04-18T04:39:59.997Z,31.72
2023-04-18T04:41:00.005Z,31.60
2023-04-18T04:41:59.972Z,33.83
2023-04-18T04:42:59.969Z,33.71
2023-04-18T04:44:00.006Z,33.36
2023-04-18T04:45:00.128Z,35.86
2023-04-18T04:46:00.204Z,36.52
2023-04-18T04:47:00.178Z,36.28
2023-04-18T04:48:00.284Z,38.22
2023-04-18T04:49:00.292Z,38.82
2023-04-18T04:50:00.355Z,41.80
2023-04-18T04:51:00.413Z,42.63
2023-04-18T04:52:01.984Z,43.03
2023-04-18T04:53:00.543Z,43.40
2023-04-18T04:54:00.587Z,42.09
2023-04-18T04:55:00.629Z,43.02
2023-04-18T04:56:00.681Z,42.02
2023-04-18T04:57:00.746Z,42.73
2023-04-18T04:58:00.805Z,43.33
2023-04-18T04:59:00.863Z,42.10
2023-04-18T05:00:00.955Z,41.42
2023-04-18T05:01:01.017Z,41.55
2023-04-18T05:02:01.074Z,41.93
2023-04-18T05:03:01.444Z,41.29
2023-04-18T05:04:01.277Z,40.65
2023-04-18T05:05:01.221Z,40.56
2023-04-18T05:06:01.273Z,39.42
2023-04-18T05:07:01.333Z,39.76
2023-04-18T05:08:01.399Z,37.44
2023-04-18T05:09:01.430Z,37.78
2023-04-18T05:10:01.503Z,37.54
2023-04-18T05:11:01.583Z,37.21
2023-04-18T05:12:01.630Z,38.65
2023-04-18T05:13:01.682Z,38.14
2023-04-18T05:14:01.734Z,38.90
2023-04-18T05:15:01.849Z,39.33
2023-04-18T05:16:01.922Z,37.63
2023-04-18T05:17:02.095Z,38.59
2023-04-18T05:18:02.015Z,38.94
2023-04-18T05:19:02.065Z,38.71
2023-04-18T05:20:02.132Z,37.63
2023-04-18T05:21:02.159Z,37.55
2023-04-18T05:22:02.238Z,35.69
2023-04-18T05:23:02.249Z,33.66
2023-04-18T05:24:02.248Z,33.71
2023-04-18T05:25:02.274Z,31.19
2023-04-18T05:26:02.219Z,31.08
2023-04-18T05:27:02.200Z,26.82
2023-04-18T05:28:02.210Z,24.88
2023-04-18T05:29:02.199Z,24.41
2023-04-18T05:30:02.188Z,27.21
2023-04-18T05:31:02.238Z,31.71
2023-04-18T05:32:02.167Z,38.26
2023-04-18T05:33:02.231Z,46.66
2023-04-18T05:34:02.129Z,56.60
2023-04-18T05:35:02.185Z,70.10
2023-04-18T05:36:02.094Z,77.86
2023-04-18T05:37:02.138Z,81.23
2023-04-18T05:38:02.212Z,80.50
2023-04-18T05:39:02.207Z,72.53
2023-04-18T05:40:02.238Z,66.67
2023-04-18T05:41:02.234Z,61.83
2023-04-18T05:42:02.685Z,58.92
2023-04-18T05:43:02.263Z,54.64
2023-04-18T05:44:05.283Z,67.11
2023-04-18T05:45:02.160Z,79.17
2023-04-18T05:46:02.163Z,87.11
2023-04-18T05:47:02.122Z,97.05
2023-04-18T05:48:02.197Z,101.47
2023-04-18T05:49:02.071Z,109.19
2023-04-18T05:50:02.053Z,113.60
2023-04-18T05:51:02.033Z,121.17
2023-04-18T05:52:01.986Z,126.77
2023-04-18T05:53:01.934Z,130.49
2023-04-18T05:54:01.884Z,130.75
2023-04-18T05:55:01.834Z,132.32
2023-04-18T05:56:01.777Z,136.30
2023-04-18T05:57:03.875Z,144.91
2023-04-18T05:58:01.971Z,159.09
2023-04-18T05:59:01.992Z,170.71
2023-04-18T06:00:02.004Z,178.51
2023-04-18T06:01:01.952Z,186.39
2023-04-18T06:02:02.029Z,189.96
2023-04-18T06:03:02.146Z,190.35
2023-04-18T06:04:02.078Z,194.60
2023-04-18T06:05:02.113Z,198.51
2023-04-18T06:06:01.968Z,201.53
2023-04-18T06:07:01.883Z,201.65
2023-04-18T06:08:01.782Z,202.09
2023-04-18T06:09:01.714Z,203.89
2023-04-18T06:10:01.703Z,208.53
2023-04-18T06:11:01.726Z,214.62
2023-04-18T06:12:01.667Z,202.07
2023-04-18T06:13:01.946Z,203.90
2023-04-18T06:14:01.486Z,208.64
2023-04-18T06:15:01.510Z,212.26
2023-04-18T06:16:01.426Z,222.81
2023-04-18T06:17:01.360Z,229.62
2023-04-18T06:18:01.405Z,230.87
2023-04-18T06:19:01.508Z,232.83
2023-04-18T06:20:01.232Z,236.67
2023-04-18T06:21:01.195Z,235.05
2023-04-18T06:22:01.120Z,236.38
2023-04-18T06:23:01.115Z,237.61
2023-04-18T06:24:01.014Z,239.85
2023-04-18T06:25:00.972Z,237.21
2023-04-18T06:26:00.918Z,233.00
2023-04-18T06:27:00.879Z,220.18
2023-04-18T06:28:00.951Z,211.87
2023-04-18T06:29:00.794Z,199.38
2023-04-18T06:30:00.728Z,191.54
2023-04-18T06:31:00.774Z,182.09
2023-04-18T06:32:00.807Z,177.73
2023-04-18T06:33:00.682Z,171.22
2023-04-18T06:34:00.659Z,172.26
2023-04-18T06:35:00.543Z,169.12
2023-04-18T06:36:00.492Z,167.67
2023-04-18T06:37:00.448Z,162.10
2023-04-18T06:38:00.401Z,157.35
2023-04-18T06:39:00.538Z,157.84
2023-04-18T06:40:00.339Z,155.95
2023-04-18T06:41:00.343Z,150.09
2023-04-18T06:42:00.279Z,152.94
2023-04-18T06:43:00.231Z,155.50
2023-04-18T06:44:04.099Z,150.12
2023-04-18T06:45:00.172Z,150.23
2023-04-18T06:46:00.177Z,147.79
2023-04-18T06:47:00.092Z,145.85
2023-04-18T06:48:00.134Z,141.58
2023-04-18T06:49:00.042Z,138.06
2023-04-18T06:50:00.060Z,133.93
2023-04-18T06:50:59.975Z,128.27
2023-04-18T06:51:59.936Z,127.02
2023-04-18T06:52:59.875Z,147.25
2023-04-18T06:53:59.859Z,137.10
2023-04-18T06:54:59.915Z,125.14
2023-04-18T06:55:59.774Z,115.11
2023-04-18T06:56:59.759Z,108.42
2023-04-18T06:57:59.713Z,107.63
2023-04-18T06:58:59.669Z,101.42
2023-04-18T06:59:59.622Z,97.16
2023-04-18T07:00:59.640Z,91.72
2023-04-18T07:01:59.573Z,88.71
2023-04-18T07:02:59.672Z,81.45
2023-04-18T07:03:59.551Z,77.95
2023-04-18T07:04:59.468Z,73.38
2023-04-18T07:05:59.512Z,67.44
2023-04-18T07:06:59.526Z,62.81
2023-04-18T07:07:59.599Z,53.61
2023-04-18T07:08:59.618Z,49.17
2023-04-18T07:09:59.662Z,45.52
2023-04-18T07:10:59.735Z,40.44
2023-04-18T07:11:59.732Z,40.96
2023-04-18T07:12:59.806Z,37.02
2023-04-18T07:13:59.780Z,42.47
2023-04-18T07:14:59.794Z,43.47
2023-04-18T07:15:59.800Z,43.84
2023-04-18T07:16:59.810Z,46.87
2023-04-18T07:17:59.834Z,49.49
2023-04-18T07:18:59.846Z,48.82
2023-04-18T07:19:59.753Z,51.82
2023-04-18T07:20:59.755Z,53.01
2023-04-18T07:21:59.758Z,51.84
2023-04-18T07:22:59.729Z,51.53
2023-04-18T07:23:59.732Z,53.33
2023-04-18T07:24:59.764Z,52.77
2023-04-18T07:25:59.755Z,55.69
2023-04-18T07:26:59.660Z,55.27
2023-04-18T07:27:59.613Z,55.83
2023-04-18T07:28:59.584Z,55.97
2023-04-18T07:29:59.544Z,56.67
2023-04-18T07:30:59.539Z,56.61
2023-04-18T07:31:59.448Z,57.58
2023-04-18T07:32:59.447Z,61.41
2023-04-18T07:33:59.379Z,64.78
2023-04-18T07:34:59.357Z,61.81
2023-04-18T07:35:59.290Z,60.29
2023-04-18T07:36:59.241Z,58.38
2023-04-18T07:37:59.210Z,62.91
2023-04-18T07:38:59.277Z,70.30
2023-04-18T07:39:59.139Z,76.75
2023-04-18T07:40:59.220Z,87.13
2023-04-18T07:41:59.163Z,99.08
2023-04-18T07:42:59.007Z,108.81
2023-04-18T07:43:59.015Z,114.47
2023-04-18T07:44:58.996Z,120.46
2023-04-18T07:45:58.924Z,123.66
2023-04-18T07:46:58.852Z,129.97
2023-04-18T07:47:58.987Z,133.19
2023-04-18T07:48:58.823Z,138.98
2023-04-18T07:49:58.761Z,141.33
2023-04-18T07:50:58.742Z,142.78
2023-04-18T07:51:58.732Z,146.50
2023-04-18T07:52:58.665Z,149.35
2023-04-18T07:53:58.679Z,150.40
2023-04-18T07:54:58.644Z,154.07
2023-04-18T07:55:58.612Z,155.65
2023-04-18T07:56:58.560Z,156.41
2023-04-18T07:57:58.571Z,156.14
2023-04-18T07:58:58.733Z,159.53
2023-04-18T07:59:58.480Z,161.81
2023-04-18T08:00:58.441Z,164.60
2023-04-18T08:01:58.392Z,164.99
2023-04-18T08:02:58.479Z,164.35
2023-04-18T08:03:58.412Z,165.49
2023-04-18T08:04:58.507Z,166.86
2023-04-18T08:05:58.263Z,167.03
2023-04-18T08:06:58.172Z,167.20
2023-04-18T08:07:58.155Z,167.88
2023-04-18T08:08:58.123Z,169.13
2023-04-18T08:09:58.082Z,169.70
2023-04-18T08:10:57.987Z,160.02
2023-04-18T08:11:57.933Z,142.31
2023-04-18T08:12:57.874Z,124.77
2023-04-18T08:13:57.833Z,109.98
2023-04-18T08:14:57.835Z,100.37
2023-04-18T08:15:57.812Z,89.44
2023-04-18T08:16:57.703Z,81.65
2023-04-18T08:17:57.679Z,75.00
2023-04-18T08:18:57.692Z,67.44
2023-04-18T08:19:57.585Z,62.36
2023-04-18T08:20:57.558Z,55.91
2023-04-18T08:21:57.549Z,50.58
2023-04-18T08:23:06.773Z,44.83
2023-04-18T08:23:58.520Z,38.56
2023-04-18T08:25:04.204Z,31.06
2023-04-18T08:25:58.472Z,25.49
2023-04-18T08:26:57.389Z,18.92
2023-04-18T08:27:57.356Z,13.35
2023-04-18T08:28:57.352Z,6.48
2023-04-18T08:29:57.311Z,1.20
2023-04-18T08:30:57.460Z,12.16
2023-04-18T08:31:57.290Z,26.36
2023-04-18T08:32:57.238Z,32.30
2023-04-18T08:33:57.252Z,39.11
2023-04-18T08:34:57.186Z,44.97
2023-04-18T08:35:57.097Z,51.06
2023-04-18T08:36:57.085Z,60.26
2023-04-18T08:37:57.092Z,65.81
2023-04-18T08:38:57.084Z,67.42
2023-04-18T08:39:57.038Z,74.59
2023-04-18T08:40:57.010Z,80.29
2023-04-18T08:41:56.969Z,85.36
2023-04-18T08:42:56.935Z,91.48
2023-04-18T08:43:57.190Z,91.58
2023-04-18T08:44:56.830Z,92.37
2023-04-18T08:45:56.801Z,94.97
2023-04-18T08:46:56.728Z,98.17
2023-04-18T08:47:56.794Z,105.76
2023-04-18T08:48:56.603Z,101.33
2023-04-18T08:49:56.551Z,101.57
2023-04-18T08:50:56.516Z,102.37
2023-04-18T08:51:56.452Z,103.36
2023-04-18T08:52:56.388Z,108.15
2023-04-18T08:53:56.383Z,118.15
2023-04-18T08:54:56.321Z,123.51
2023-04-18T08:55:56.285Z,126.10
2023-04-18T08:56:56.183Z,128.90
2023-04-18T08:57:56.137Z,132.31
2023-04-18T08:58:56.097Z,135.70
2023-04-18T08:59:56.048Z,138.04
2023-04-18T09:00:56.071Z,141.17
2023-04-18T09:01:56.002Z,141.41
2023-04-18T09:02:56.183Z,144.23
2023-04-18T09:03:55.922Z,146.29
2023-04-18T09:04:55.819Z,147.95
2023-04-18T09:05:55.753Z,150.54
2023-04-18T09:06:55.689Z,150.29
2023-04-18T09:07:55.632Z,151.14
2023-04-18T09:08:55.585Z,154.22
2023-04-18T09:09:55.540Z,156.74
2023-04-18T09:10:55.474Z,160.32
2023-04-18T09:11:55.413Z,160.79
2023-04-18T09:12:55.369Z,163.42
2023-04-18T09:13:55.309Z,165.15
2023-04-18T09:14:55.275Z,165.43
2023-04-18T09:15:55.224Z,166.98
2023-04-18T09:16:55.197Z,166.76
2023-04-18T09:17:55.158Z,168.26
2023-04-18T09:18:55.079Z,165.96
2023-04-18T09:19:54.999Z,167.63
2023-04-18T09:20:54.958Z,167.63
2023-04-18T09:21:54.912Z,165.83
2023-04-18T09:22:54.848Z,164.63
2023-04-18T09:23:54.832Z,163.15
2023-04-18T09:24:54.749Z,162.43
2023-04-18T09:25:54.736Z,162.79
2023-04-18T09:26:54.643Z,162.97
2023-04-18T09:27:54.590Z,161.31
2023-04-18T09:28:54.545Z,162.35
2023-04-18T09:29:55.260Z,161.94
2023-04-18T09:30:54.511Z,163.70
2023-04-18T09:31:54.467Z,166.76
2023-04-18T09:32:54.377Z,168.65
2023-04-18T09:33:54.425Z,164.80
2023-04-18T09:34:54.288Z,169.22
2023-04-18T09:35:54.229Z,169.34
2023-04-18T09:36:54.199Z,171.87
2023-04-18T09:37:54.094Z,174.46
2023-04-18T09:38:56.684Z,173.72
2023-04-18T09:39:54.019Z,173.78
2023-04-18T09:40:53.955Z,168.27
2023-04-18T09:41:53.918Z,163.77
2023-04-18T09:42:53.851Z,159.88
2023-04-18T09:43:53.815Z,152.18
2023-04-18T09:44:55.135Z,148.81
2023-04-18T09:45:53.791Z,139.08
2023-04-18T09:46:53.677Z,118.51
2023-04-18T09:47:53.718Z,103.46
2023-04-18T09:48:53.551Z,86.73
2023-04-18T09:49:53.540Z,65.90
2023-04-18T09:50:53.494Z,50.82
2023-04-18T09:51:53.442Z,29.37
2023-04-18T09:52:53.378Z,23.81
2023-04-18T09:53:53.336Z,24.99
2023-04-18T09:54:53.288Z,24.78
2023-04-18T09:55:54.320Z,24.76
2023-04-18T09:56:53.223Z,23.79
2023-04-18T09:57:53.129Z,12.52
2023-04-18T09:58:53.101Z,2.27
2023-04-18T09:59:53.057Z,4.26
2023-04-18T10:00:53.067Z,0.00
2023-04-18T10:01:52.974Z,5.21
2023-04-18T10:02:52.958Z,13.23
2023-04-18T10:03:53.054Z,16.06
2023-04-18T10:04:52.964Z,24.77
2023-04-18T10:05:52.838Z,28.46
2023-04-18T10:06:52.824Z,25.32
2023-04-18T10:07:52.793Z,25.76
2023-04-18T10:08:52.731Z,25.85
2023-04-18T10:09:52.761Z,26.09
2023-04-18T10:10:52.669Z,26.08
2023-04-18T10:11:52.596Z,27.07
2023-04-18T10:12:52.606Z,25.87
2023-04-18T10:13:52.541Z,21.57
2023-04-18T10:14:52.442Z,23.53
2023-04-18T10:15:52.474Z,21.25
2023-04-18T10:16:52.368Z,21.94
2023-04-18T10:18:03.637Z,25.37
2023-04-18T10:18:53.289Z,22.34
2023-04-18T10:19:52.242Z,22.43
2023-04-18T10:20:52.217Z,26.05
2023-04-18T10:21:52.120Z,26.92
2023-04-18T10:22:52.183Z,27.00
2023-04-18T10:23:52.270Z,30.47
2023-04-18T10:24:52.064Z,29.20
2023-04-18T10:25:51.984Z,35.72
2023-04-18T10:26:51.913Z,34.05
2023-04-18T10:27:51.995Z,30.10
2023-04-18T10:28:51.826Z,29.44
2023-04-18T10:29:51.822Z,28.93
2023-04-18T10:30:51.777Z,29.93
2023-04-18T10:31:51.863Z,31.99
2023-04-18T10:32:51.685Z,34.96
2023-04-18T10:34:03.239Z,32.84
2023-04-18T10:34:52.563Z,32.91
2023-04-18T10:35:51.555Z,32.91
2023-04-18T10:36:51.447Z,30.66
2023-04-18T10:37:51.416Z,25.45
2023-04-18T10:38:51.415Z,11.28
2023-04-18T10:39:51.336Z,16.52
2023-04-18T10:40:51.389Z,22.97
2023-04-18T10:41:51.527Z,28.83
2023-04-18T10:42:51.245Z,29.83
2023-04-18T10:43:51.190Z,32.19
2023-04-18T10:44:51.183Z,35.56
2023-04-18T10:45:51.151Z,38.08
2023-04-18T10:46:51.217Z,39.71
2023-04-18T10:47:51.158Z,40.16
2023-04-18T10:48:51.061Z,41.87
2023-04-18T10:49:51.029Z,44.02
2023-04-18T10:50:51.035Z,45.23
2023-04-18T10:51:50.997Z,45.26
2023-04-18T10:52:51.013Z,45.64
2023-04-18T10:53:50.911Z,46.81
2023-04-18T10:54:50.860Z,47.30
2023-04-18T10:55:50.816Z,48.26
2023-04-18T10:56:50.781Z,47.53
2023-04-18T10:57:50.717Z,47.51
2023-04-18T10:58:50.655Z,49.53
2023-04-18T10:59:50.620Z,49.64
2023-04-18T11:00:50.592Z,50.47
2023-04-18T11:01:50.544Z,51.22
2023-04-18T11:02:50.685Z,55.05
2023-04-18T11:03:50.781Z,59.71
2023-04-18T11:04:50.387Z,60.79
2023-04-18T11:05:50.326Z,63.84
2023-04-18T11:06:50.311Z,66.00
2023-04-18T11:07:50.256Z,64.15
2023-04-18T11:08:50.173Z,62.17
2023-04-18T11:09:50.112Z,59.89
2023-04-18T11:10:50.085Z,58.26
2023-04-18T11:11:50.027Z,57.74
2023-04-18T11:12:49.962Z,62.36
2023-04-18T11:13:49.904Z,62.05
2023-04-18T11:14:50.040Z,62.53
2023-04-18T11:15:49.880Z,59.02
2023-04-18T11:16:49.796Z,55.84
2023-04-18T11:17:49.706Z,51.32
2023-04-18T11:18:49.633Z,46.93
2023-04-18T11:19:49.592Z,44.82
2023-04-18T11:20:49.535Z,42.80
2023-04-18T11:21:49.484Z,38.10
2023-04-18T11:22:49.445Z,32.88
2023-04-18T11:23:49.427Z,29.53
2023-04-18T11:24:49.327Z,28.49
2023-04-18T11:25:49.316Z,28.97
2023-04-18T11:26:49.302Z,29.79
2023-04-18T11:27:49.178Z,25.30
2023-04-18T11:28:49.228Z,27.97
2023-04-18T11:29:49.097Z,33.83
2023-04-18T11:30:49.055Z,40.59
2023-04-18T11:31:49.034Z,46.84
2023-04-18T11:32:49.014Z,51.77
2023-04-18T11:33:48.902Z,57.45
2023-04-18T11:34:48.864Z,59.83
2023-04-18T11:35:48.863Z,66.00
2023-04-18T11:36:48.919Z,71.18
2023-04-18T11:37:48.877Z,75.30
2023-04-18T11:38:48.898Z,81.49
2023-04-18T11:39:48.888Z,85.37
2023-04-18T11:40:48.889Z,91.67
2023-04-18T11:41:48.886Z,98.08
2023-04-18T11:42:48.980Z,103.70
2023-04-18T11:43:48.901Z,107.97
2023-04-18T11:44:48.901Z,112.95
2023-04-18T11:45:48.961Z,116.86
2023-04-18T11:46:48.844Z,117.03
2023-04-18T11:47:48.845Z,117.86
2023-04-18T11:48:48.718Z,120.48
2023-04-18T11:49:48.660Z,126.39
2023-04-18T11:50:48.606Z,133.34
2023-04-18T11:51:48.539Z,137.50
2023-04-18T11:52:48.475Z,140.56
2023-04-18T11:53:48.417Z,143.22
2023-04-18T11:54:48.374Z,145.94
2023-04-18T11:55:48.325Z,148.75
2023-04-18T11:56:48.323Z,149.12
2023-04-18T11:57:48.289Z,151.84
2023-04-18T11:58:48.313Z,154.10
2023-04-18T11:59:48.281Z,157.13
2023-04-18T12:00:48.305Z,158.53
2023-04-18T12:01:48.354Z,160.33
2023-04-18T12:02:48.380Z,161.78
2023-04-18T12:03:48.510Z,162.22
2023-04-18T12:04:48.410Z,163.14
2023-04-18T12:05:48.587Z,164.69
2023-04-18T12:06:48.316Z,165.28
2023-04-18T12:07:48.296Z,166.97
2023-04-18T12:08:48.277Z,166.24
2023-04-18T12:09:48.270Z,168.08
2023-04-18T12:10:48.257Z,170.24
2023-04-18T12:11:48.228Z,169.68
2023-04-18T12:12:48.227Z,169.95
2023-04-18T12:13:48.189Z,170.99
2023-04-18T12:14:48.247Z,170.77
2023-04-18T12:15:48.252Z,171.13
2023-04-18T12:16:48.216Z,171.72
2023-04-18T12:17:48.248Z,172.51
2023-04-18T12:18:48.195Z,173.64
2023-04-18T12:19:49.826Z,173.79
2023-04-18T12:20:48.197Z,173.54
2023-04-18T12:21:48.179Z,173.88
2023-04-18T12:22:48.150Z,175.31
2023-04-18T12:23:48.151Z,175.66
2023-04-18T12:24:48.107Z,175.90
2023-04-18T12:25:48.079Z,176.31
2023-04-18T12:26:48.068Z,175.40
2023-04-18T12:27:48.045Z,176.25
2023-04-18T12:28:48.022Z,176.22
2023-04-18T12:29:47.995Z,176.15
2023-04-18T12:30:48.251Z,176.74
2023-04-18T12:31:47.970Z,177.56
2023-04-18T12:32:47.917Z,178.00
2023-04-18T12:33:47.871Z,179.51
2023-04-18T12:34:47.849Z,181.87
2023-04-18T12:35:49.578Z,184.23
2023-04-18T12:36:47.775Z,185.40
2023-04-18T12:37:47.731Z,186.81
2023-04-18T12:38:47.687Z,187.91